Aérodrome :
LOGIN :

S'inscrire | Disclaimer

   EN    FR    IT 

 










Légende :    VFR   VFR Marginal   IFR   IFR Intensif   IFR Très Intensif
Visi : 
Plafond : 
>= 8 km
>= 3000ft
5 à 8 km
1000 à 3000 ft
1500m à 5 km
500 à 1000 ft
800 à 1500m
200 à 500 ft
< 800m
< 200 ft
Symboles :   Orages  Brouillard  Fortes neiges  Fortes précipitations  Vent > 20 kt
SIGMETs :   Divers  Orages  Givrage  Turbulence  Onde Orograph.  Cendres Volcan.







- Altitude de l'aérodrome : 146 ft
- Code IATA : RKE


EKRK - Roskilde Tune

DERNIER METAR :
  • 201650Z AUTO 16004KT 5000NDV SCT015/// OVC018/// 01/00 Q1003

METARs EXPIRÉS :
  • 201620Z AUTO 17004KT 5000NDV FEW009/// BKN014/// OVC017/// 01/01 Q1002
  • 201550Z AUTO 17004KT 5000NDV FEW008/// BKN013/// BKN017/// 01/01 Q1002
  • 201520Z AUTO 17005KT 5000NDV FEW008/// BKN011/// BKN015/// 01/01 Q1002
  • 201450Z AUTO 17005KT 8000NDV FEW008/// BKN010/// OVC013/// 02/01 Q1002
  • 201420Z AUTO 17004KT 9999NDV FEW011/// OVC014/// 02/00 Q1002

TAF TAF EKRK
Valide du 20 à 15h jusqu'au 21 à 00h UTC


201428Z 2015/2024 17006KT 9000 FEW008 BKN015
TEMPO 2015/2024 4000 -SHSNRA BR BKN008
Pas de NOTAMs connus pour ce terrain.



MET'MAP, la Météo Aéronautique d'un coup d'oeil ! - Copyright ORBIFLY Décembre 2007 - Disclaimer

ORBIFLY MET'MAP TEAM :

Programmation & Développement : Alexandra Zaïnal
Conception & Développement : Baudouin d'Aumeries
Co-Programmation & Développement : Marc-Olivier Méhu
Soutien technique & logistique : Manuel Goepfert

Contact : metmap@orbifly.com




SOURCES & CREDITS :

   NOAA